sensor_id;sensor_type;location;lat;lon;timestamp;P1;durP1;ratioP1;P2;durP2;ratioP2
26050;SDS011;13825;53.496;10.020;2023-05-19T00:01:56;10.50;;;2.73;;
26050;SDS011;13825;53.496;10.020;2023-05-19T00:04:24;4.80;;;2.53;;
26050;SDS011;13825;53.496;10.020;2023-05-19T00:06:52;7.77;;;2.83;;
26050;SDS011;13825;53.496;10.020;2023-05-19T00:09:21;7.23;;;3.27;;
26050;SDS011;13825;53.496;10.020;2023-05-19T00:11:49;4.83;;;2.97;;
26050;SDS011;13825;53.496;10.020;2023-05-19T00:14:16;5.20;;;3.00;;
26050;SDS011;13825;53.496;10.020;2023-05-19T00:16:44;4.13;;;2.87;;
26050;SDS011;13825;53.496;10.020;2023-05-19T00:19:11;6.43;;;2.83;;
26050;SDS011;13825;53.496;10.020;2023-05-19T00:21:38;5.93;;;3.07;;
26050;SDS011;13825;53.496;10.020;2023-05-19T00:24:05;4.53;;;2.90;;
26050;SDS011;13825;53.496;10.020;2023-05-19T00:26:34;5.93;;;3.20;;
26050;SDS011;13825;53.496;10.020;2023-05-19T00:29:01;5.67;;;3.17;;
26050;SDS011;13825;53.496;10.020;2023-05-19T00:31:29;4.53;;;2.83;;
26050;SDS011;13825;53.496;10.020;2023-05-19T00:33:57;4.07;;;2.57;;
26050;SDS011;13825;53.496;10.020;2023-05-19T00:36:25;3.40;;;2.50;;
26050;SDS011;13825;53.496;10.020;2023-05-19T00:38:52;3.47;;;2.77;;
26050;SDS011;13825;53.496;10.020;2023-05-19T00:41:21;5.97;;;2.93;;
26050;SDS011;13825;53.496;10.020;2023-05-19T00:43:49;7.20;;;2.80;;
26050;SDS011;13825;53.496;10.020;2023-05-19T00:46:18;5.33;;;2.63;;
26050;SDS011;13825;53.496;10.020;2023-05-19T00:48:46;5.37;;;2.57;;
26050;SDS011;13825;53.496;10.020;2023-05-19T00:51:14;3.87;;;2.63;;
26050;SDS011;13825;53.496;10.020;2023-05-19T00:53:41;7.00;;;2.97;;
26050;SDS011;13825;53.496;10.020;2023-05-19T00:56:13;3.27;;;2.60;;
26050;SDS011;13825;53.496;10.020;2023-05-19T00:58:41;6.80;;;2.50;;
26050;SDS011;13825;53.496;10.020;2023-05-19T01:01:09;3.83;;;2.93;;
26050;SDS011;13825;53.496;10.020;2023-05-19T01:03:38;4.83;;;2.97;;
26050;SDS011;13825;53.496;10.020;2023-05-19T01:06:07;3.97;;;2.37;;
26050;SDS011;13825;53.496;10.020;2023-05-19T01:08:34;4.77;;;2.70;;
26050;SDS011;13825;53.496;10.020;2023-05-19T01:11:02;4.97;;;2.73;;
26050;SDS011;13825;53.496;10.020;2023-05-19T01:13:30;5.77;;;2.97;;
26050;SDS011;13825;53.496;10.020;2023-05-19T01:16:00;2.90;;;2.43;;
26050;SDS011;13825;53.496;10.020;2023-05-19T01:18:42;4.07;;;2.90;;
26050;SDS011;13825;53.496;10.020;2023-05-19T01:21:24;4.87;;;2.80;;
26050;SDS011;13825;53.496;10.020;2023-05-19T01:24:20;5.67;;;2.63;;
26050;SDS011;13825;53.496;10.020;2023-05-19T01:27:13;5.67;;;2.83;;
26050;SDS011;13825;53.496;10.020;2023-05-19T01:32:49;4.53;;;2.43;;
26050;SDS011;13825;53.496;10.020;2023-05-19T01:35:19;6.50;;;2.80;;
26050;SDS011;13825;53.496;10.020;2023-05-19T01:37:50;5.60;;;3.10;;
26050;SDS011;13825;53.496;10.020;2023-05-19T01:40:20;3.27;;;2.47;;
26050;SDS011;13825;53.496;10.020;2023-05-19T01:42:51;3.67;;;2.60;;
26050;SDS011;13825;53.496;10.020;2023-05-19T01:45:21;4.87;;;2.87;;
26050;SDS011;13825;53.496;10.020;2023-05-19T01:47:50;6.93;;;3.30;;
26050;SDS011;13825;53.496;10.020;2023-05-19T01:50:20;6.33;;;2.93;;
26050;SDS011;13825;53.496;10.020;2023-05-19T01:52:48;5.07;;;2.93;;
26050;SDS011;13825;53.496;10.020;2023-05-19T01:55:15;5.33;;;3.00;;
26050;SDS011;13825;53.496;10.020;2023-05-19T01:57:49;4.90;;;3.30;;
26050;SDS011;13825;53.496;10.020;2023-05-19T02:00:29;7.43;;;3.43;;
26050;SDS011;13825;53.496;10.020;2023-05-19T02:03:05;8.17;;;2.77;;
26050;SDS011;13825;53.496;10.020;2023-05-19T02:05:43;5.40;;;3.20;;
26050;SDS011;13825;53.496;10.020;2023-05-19T02:08:19;3.97;;;2.70;;
26050;SDS011;13825;53.496;10.020;2023-05-19T02:10:53;6.80;;;3.03;;
26050;SDS011;13825;53.496;10.020;2023-05-19T02:13:23;4.43;;;2.97;;
26050;SDS011;13825;53.496;10.020;2023-05-19T02:15:56;6.17;;;3.30;;
26050;SDS011;13825;53.496;10.020;2023-05-19T02:18:28;5.73;;;3.17;;
26050;SDS011;13825;53.496;10.020;2023-05-19T02:20:56;4.93;;;3.03;;
26050;SDS011;13825;53.496;10.020;2023-05-19T02:23:23;5.13;;;3.30;;
26050;SDS011;13825;53.496;10.020;2023-05-19T02:25:50;7.90;;;3.67;;
26050;SDS011;13825;53.496;10.020;2023-05-19T02:28:17;5.30;;;3.33;;
26050;SDS011;13825;53.496;10.020;2023-05-19T02:30:44;9.87;;;3.47;;
26050;SDS011;13825;53.496;10.020;2023-05-19T02:33:14;6.27;;;3.90;;
26050;SDS011;13825;53.496;10.020;2023-05-19T02:35:41;4.40;;;3.07;;
26050;SDS011;13825;53.496;10.020;2023-05-19T02:38:10;6.90;;;3.43;;
26050;SDS011;13825;53.496;10.020;2023-05-19T02:40:37;8.27;;;4.13;;
26050;SDS011;13825;53.496;10.020;2023-05-19T02:43:04;5.60;;;3.10;;
26050;SDS011;13825;53.496;10.020;2023-05-19T02:45:32;5.33;;;3.33;;
26050;SDS011;13825;53.496;10.020;2023-05-19T02:47:59;12.03;;;3.50;;
26050;SDS011;13825;53.496;10.020;2023-05-19T02:50:27;6.43;;;3.03;;
26050;SDS011;13825;53.496;10.020;2023-05-19T02:52:55;4.33;;;3.07;;
26050;SDS011;13825;53.496;10.020;2023-05-19T02:55:26;6.07;;;3.40;;
26050;SDS011;13825;53.496;10.020;2023-05-19T02:57:56;6.60;;;3.70;;
26050;SDS011;13825;53.496;10.020;2023-05-19T03:00:23;6.17;;;3.83;;
26050;SDS011;13825;53.496;10.020;2023-05-19T03:02:51;7.50;;;3.30;;
26050;SDS011;13825;53.496;10.020;2023-05-19T03:05:28;5.50;;;3.20;;
26050;SDS011;13825;53.496;10.020;2023-05-19T03:07:55;4.13;;;3.43;;
26050;SDS011;13825;53.496;10.020;2023-05-19T03:10:23;5.73;;;3.50;;
26050;SDS011;13825;53.496;10.020;2023-05-19T03:12:50;5.70;;;4.03;;
26050;SDS011;13825;53.496;10.020;2023-05-19T03:15:17;8.83;;;4.10;;
26050;SDS011;13825;53.496;10.020;2023-05-19T03:17:48;4.87;;;3.23;;
26050;SDS011;13825;53.496;10.020;2023-05-19T03:20:33;6.67;;;3.03;;
26050;SDS011;13825;53.496;10.020;2023-05-19T03:23:03;7.27;;;3.93;;
26050;SDS011;13825;53.496;10.020;2023-05-19T03:25:34;7.20;;;3.20;;
26050;SDS011;13825;53.496;10.020;2023-05-19T03:28:05;7.27;;;3.00;;
26050;SDS011;13825;53.496;10.020;2023-05-19T03:30:33;4.70;;;3.23;;
26050;SDS011;13825;53.496;10.020;2023-05-19T03:33:15;4.90;;;2.90;;
26050;SDS011;13825;53.496;10.020;2023-05-19T03:35:46;4.50;;;3.13;;
26050;SDS011;13825;53.496;10.020;2023-05-19T03:38:17;6.80;;;3.90;;
26050;SDS011;13825;53.496;10.020;2023-05-19T03:40:44;9.30;;;3.83;;
26050;SDS011;13825;53.496;10.020;2023-05-19T03:43:11;9.67;;;3.30;;
26050;SDS011;13825;53.496;10.020;2023-05-19T03:45:40;5.17;;;3.70;;
26050;SDS011;13825;53.496;10.020;2023-05-19T03:48:07;7.40;;;4.33;;
26050;SDS011;13825;53.496;10.020;2023-05-19T03:50:34;4.80;;;3.10;;
26050;SDS011;13825;53.496;10.020;2023-05-19T03:53:06;4.80;;;3.27;;
26050;SDS011;13825;53.496;10.020;2023-05-19T03:55:32;7.83;;;4.07;;
26050;SDS011;13825;53.496;10.020;2023-05-19T03:58:01;10.60;;;4.00;;
26050;SDS011;13825;53.496;10.020;2023-05-19T04:00:28;6.63;;;3.60;;
26050;SDS011;13825;53.496;10.020;2023-05-19T04:02:55;6.00;;;3.70;;
26050;SDS011;13825;53.496;10.020;2023-05-19T04:05:23;6.40;;;3.20;;
26050;SDS011;13825;53.496;10.020;2023-05-19T04:07:50;6.10;;;3.50;;
26050;SDS011;13825;53.496;10.020;2023-05-19T04:10:19;7.40;;;3.73;;
26050;SDS011;13825;53.496;10.020;2023-05-19T04:12:46;9.10;;;3.73;;
26050;SDS011;13825;53.496;10.020;2023-05-19T04:15:13;8.53;;;3.40;;
26050;SDS011;13825;53.496;10.020;2023-05-19T04:17:41;6.57;;;3.10;;
26050;SDS011;13825;53.496;10.020;2023-05-19T04:20:08;5.03;;;3.60;;
26050;SDS011;13825;53.496;10.020;2023-05-19T04:22:37;6.47;;;3.40;;
26050;SDS011;13825;53.496;10.020;2023-05-19T04:25:04;5.70;;;3.30;;
26050;SDS011;13825;53.496;10.020;2023-05-19T04:27:33;6.83;;;3.83;;
26050;SDS011;13825;53.496;10.020;2023-05-19T04:30:02;6.20;;;3.33;;
26050;SDS011;13825;53.496;10.020;2023-05-19T04:32:30;6.50;;;3.57;;
26050;SDS011;13825;53.496;10.020;2023-05-19T04:34:57;6.53;;;3.23;;
26050;SDS011;13825;53.496;10.020;2023-05-19T04:37:24;8.17;;;3.27;;
26050;SDS011;13825;53.496;10.020;2023-05-19T04:39:52;12.83;;;4.07;;
26050;SDS011;13825;53.496;10.020;2023-05-19T04:42:19;7.97;;;3.67;;
26050;SDS011;13825;53.496;10.020;2023-05-19T04:44:47;6.43;;;3.77;;
26050;SDS011;13825;53.496;10.020;2023-05-19T04:47:15;8.50;;;4.07;;
26050;SDS011;13825;53.496;10.020;2023-05-19T04:49:45;6.70;;;3.40;;
26050;SDS011;13825;53.496;10.020;2023-05-19T04:52:12;5.13;;;3.60;;
26050;SDS011;13825;53.496;10.020;2023-05-19T04:54:39;7.27;;;3.13;;
26050;SDS011;13825;53.496;10.020;2023-05-19T04:57:06;9.00;;;3.87;;
26050;SDS011;13825;53.496;10.020;2023-05-19T04:59:34;7.87;;;3.63;;
26050;SDS011;13825;53.496;10.020;2023-05-19T05:02:03;7.07;;;3.30;;
26050;SDS011;13825;53.496;10.020;2023-05-19T05:04:30;8.63;;;3.27;;
26050;SDS011;13825;53.496;10.020;2023-05-19T05:06:57;7.00;;;3.37;;
26050;SDS011;13825;53.496;10.020;2023-05-19T05:09:24;5.67;;;3.30;;
26050;SDS011;13825;53.496;10.020;2023-05-19T05:11:51;8.10;;;3.30;;
26050;SDS011;13825;53.496;10.020;2023-05-19T05:14:19;7.00;;;3.57;;
26050;SDS011;13825;53.496;10.020;2023-05-19T05:16:46;7.30;;;3.40;;
26050;SDS011;13825;53.496;10.020;2023-05-19T05:19:16;4.10;;;3.27;;
26050;SDS011;13825;53.496;10.020;2023-05-19T05:21:43;5.77;;;3.13;;
26050;SDS011;13825;53.496;10.020;2023-05-19T05:24:11;9.70;;;3.50;;
26050;SDS011;13825;53.496;10.020;2023-05-19T05:26:39;7.43;;;3.47;;
26050;SDS011;13825;53.496;10.020;2023-05-19T05:29:07;9.33;;;3.33;;
26050;SDS011;13825;53.496;10.020;2023-05-19T05:31:34;8.03;;;3.80;;
26050;SDS011;13825;53.496;10.020;2023-05-19T05:34:02;6.87;;;3.30;;
26050;SDS011;13825;53.496;10.020;2023-05-19T05:36:30;5.60;;;2.97;;
26050;SDS011;13825;53.496;10.020;2023-05-19T05:38:59;10.83;;;3.47;;
26050;SDS011;13825;53.496;10.020;2023-05-19T05:41:28;5.67;;;3.00;;
26050;SDS011;13825;53.496;10.020;2023-05-19T05:43:59;6.10;;;3.07;;
26050;SDS011;13825;53.496;10.020;2023-05-19T05:46:26;8.33;;;2.93;;
26050;SDS011;13825;53.496;10.020;2023-05-19T05:48:53;7.97;;;3.07;;
26050;SDS011;13825;53.496;10.020;2023-05-19T05:51:21;7.10;;;2.77;;
26050;SDS011;13825;53.496;10.020;2023-05-19T05:53:50;5.23;;;3.03;;
26050;SDS011;13825;53.496;10.020;2023-05-19T05:56:18;6.30;;;2.77;;
26050;SDS011;13825;53.496;10.020;2023-05-19T05:58:46;5.97;;;3.03;;
26050;SDS011;13825;53.496;10.020;2023-05-19T06:01:13;3.63;;;2.63;;
26050;SDS011;13825;53.496;10.020;2023-05-19T06:03:41;7.93;;;2.90;;
26050;SDS011;13825;53.496;10.020;2023-05-19T06:06:09;6.57;;;2.97;;
26050;SDS011;13825;53.496;10.020;2023-05-19T06:08:36;6.80;;;3.27;;
26050;SDS011;13825;53.496;10.020;2023-05-19T06:11:05;10.00;;;3.40;;
26050;SDS011;13825;53.496;10.020;2023-05-19T06:13:33;6.30;;;2.60;;
26050;SDS011;13825;53.496;10.020;2023-05-19T06:16:00;5.30;;;2.73;;
26050;SDS011;13825;53.496;10.020;2023-05-19T06:18:27;5.57;;;2.70;;
26050;SDS011;13825;53.496;10.020;2023-05-19T06:20:54;7.10;;;2.80;;
26050;SDS011;13825;53.496;10.020;2023-05-19T06:23:21;6.30;;;3.43;;
26050;SDS011;13825;53.496;10.020;2023-05-19T06:25:49;5.73;;;2.83;;
26050;SDS011;13825;53.496;10.020;2023-05-19T06:28:17;4.40;;;2.80;;
26050;SDS011;13825;53.496;10.020;2023-05-19T06:30:44;7.37;;;2.70;;
26050;SDS011;13825;53.496;10.020;2023-05-19T06:33:11;5.87;;;3.20;;
26050;SDS011;13825;53.496;10.020;2023-05-19T06:35:38;7.83;;;2.80;;
26050;SDS011;13825;53.496;10.020;2023-05-19T06:38:05;5.57;;;2.43;;
26050;SDS011;13825;53.496;10.020;2023-05-19T06:40:32;8.03;;;2.57;;
26050;SDS011;13825;53.496;10.020;2023-05-19T06:43:00;4.00;;;2.53;;
26050;SDS011;13825;53.496;10.020;2023-05-19T06:45:28;6.73;;;3.17;;
26050;SDS011;13825;53.496;10.020;2023-05-19T06:47:55;6.27;;;2.53;;
26050;SDS011;13825;53.496;10.020;2023-05-19T06:50:23;7.33;;;2.50;;
26050;SDS011;13825;53.496;10.020;2023-05-19T06:52:50;4.47;;;2.40;;
26050;SDS011;13825;53.496;10.020;2023-05-19T06:55:17;4.03;;;2.53;;
26050;SDS011;13825;53.496;10.020;2023-05-19T06:57:44;5.13;;;2.40;;
26050;SDS011;13825;53.496;10.020;2023-05-19T07:00:11;5.27;;;2.67;;
26050;SDS011;13825;53.496;10.020;2023-05-19T07:02:40;6.83;;;3.17;;
26050;SDS011;13825;53.496;10.020;2023-05-19T07:05:07;7.07;;;2.50;;
26050;SDS011;13825;53.496;10.020;2023-05-19T07:07:34;4.87;;;2.40;;
26050;SDS011;13825;53.496;10.020;2023-05-19T07:10:01;5.80;;;2.47;;
26050;SDS011;13825;53.496;10.020;2023-05-19T07:12:28;4.10;;;2.30;;
26050;SDS011;13825;53.496;10.020;2023-05-19T07:14:55;4.53;;;2.50;;
26050;SDS011;13825;53.496;10.020;2023-05-19T07:17:22;2.67;;;2.30;;
26050;SDS011;13825;53.496;10.020;2023-05-19T07:19:50;7.10;;;2.40;;
26050;SDS011;13825;53.496;10.020;2023-05-19T07:22:17;5.10;;;1.90;;
26050;SDS011;13825;53.496;10.020;2023-05-19T07:24:48;4.47;;;2.20;;
26050;SDS011;13825;53.496;10.020;2023-05-19T07:27:16;5.80;;;2.20;;
26050;SDS011;13825;53.496;10.020;2023-05-19T07:29:43;5.67;;;2.40;;
26050;SDS011;13825;53.496;10.020;2023-05-19T07:32:10;5.90;;;2.37;;
26050;SDS011;13825;53.496;10.020;2023-05-19T07:34:39;2.80;;;1.97;;
26050;SDS011;13825;53.496;10.020;2023-05-19T07:37:09;6.37;;;2.27;;
26050;SDS011;13825;53.496;10.020;2023-05-19T07:39:36;4.10;;;1.77;;
26050;SDS011;13825;53.496;10.020;2023-05-19T07:42:04;8.80;;;2.43;;
26050;SDS011;13825;53.496;10.020;2023-05-19T07:44:31;3.77;;;2.10;;
26050;SDS011;13825;53.496;10.020;2023-05-19T07:46:58;5.13;;;2.43;;
26050;SDS011;13825;53.496;10.020;2023-05-19T07:49:26;5.73;;;1.90;;
26050;SDS011;13825;53.496;10.020;2023-05-19T07:51:54;5.33;;;2.20;;
26050;SDS011;13825;53.496;10.020;2023-05-19T07:54:23;3.10;;;1.87;;
26050;SDS011;13825;53.496;10.020;2023-05-19T07:56:50;6.13;;;2.30;;
26050;SDS011;13825;53.496;10.020;2023-05-19T07:59:17;4.43;;;1.90;;
26050;SDS011;13825;53.496;10.020;2023-05-19T08:01:56;4.10;;;2.00;;
26050;SDS011;13825;53.496;10.020;2023-05-19T08:04:24;7.40;;;2.00;;
26050;SDS011;13825;53.496;10.020;2023-05-19T08:06:51;3.00;;;1.93;;
26050;SDS011;13825;53.496;10.020;2023-05-19T08:09:23;5.03;;;2.97;;
26050;SDS011;13825;53.496;10.020;2023-05-19T08:11:51;5.70;;;1.90;;
26050;SDS011;13825;53.496;10.020;2023-05-19T08:14:18;8.97;;;2.40;;
26050;SDS011;13825;53.496;10.020;2023-05-19T08:16:50;4.97;;;1.93;;
26050;SDS011;13825;53.496;10.020;2023-05-19T08:19:17;7.37;;;2.20;;
26050;SDS011;13825;53.496;10.020;2023-05-19T08:21:44;5.73;;;1.80;;
26050;SDS011;13825;53.496;10.020;2023-05-19T08:24:12;3.97;;;1.73;;
26050;SDS011;13825;53.496;10.020;2023-05-19T08:26:42;4.97;;;1.97;;
26050;SDS011;13825;53.496;10.020;2023-05-19T08:29:09;3.60;;;2.00;;
26050;SDS011;13825;53.496;10.020;2023-05-19T08:31:40;3.70;;;1.80;;
26050;SDS011;13825;53.496;10.020;2023-05-19T08:34:10;5.97;;;1.90;;
26050;SDS011;13825;53.496;10.020;2023-05-19T08:36:37;5.43;;;1.90;;
26050;SDS011;13825;53.496;10.020;2023-05-19T08:39:07;5.30;;;1.90;;
26050;SDS011;13825;53.496;10.020;2023-05-19T08:41:38;4.63;;;2.30;;
26050;SDS011;13825;53.496;10.020;2023-05-19T08:44:07;5.77;;;2.30;;
26050;SDS011;13825;53.496;10.020;2023-05-19T08:46:35;7.13;;;2.17;;
26050;SDS011;13825;53.496;10.020;2023-05-19T08:49:04;3.40;;;2.17;;
26050;SDS011;13825;53.496;10.020;2023-05-19T08:51:38;7.27;;;2.17;;
26050;SDS011;13825;53.496;10.020;2023-05-19T08:54:13;2.13;;;1.77;;
26050;SDS011;13825;53.496;10.020;2023-05-19T08:56:50;6.33;;;2.33;;
26050;SDS011;13825;53.496;10.020;2023-05-19T08:59:18;8.00;;;2.07;;
26050;SDS011;13825;53.496;10.020;2023-05-19T09:01:47;5.77;;;2.07;;
26050;SDS011;13825;53.496;10.020;2023-05-19T09:04:16;4.53;;;1.90;;
26050;SDS011;13825;53.496;10.020;2023-05-19T09:06:44;5.20;;;2.00;;
26050;SDS011;13825;53.496;10.020;2023-05-19T09:09:15;4.33;;;2.07;;
26050;SDS011;13825;53.496;10.020;2023-05-19T09:11:44;4.67;;;1.90;;
26050;SDS011;13825;53.496;10.020;2023-05-19T09:14:11;7.73;;;2.67;;
26050;SDS011;13825;53.496;10.020;2023-05-19T09:16:40;7.53;;;1.90;;
26050;SDS011;13825;53.496;10.020;2023-05-19T09:19:13;5.53;;;2.00;;
26050;SDS011;13825;53.496;10.020;2023-05-19T09:21:41;5.30;;;2.37;;
26050;SDS011;13825;53.496;10.020;2023-05-19T09:24:10;3.63;;;1.63;;
26050;SDS011;13825;53.496;10.020;2023-05-19T09:26:37;4.40;;;1.87;;
26050;SDS011;13825;53.496;10.020;2023-05-19T09:29:12;3.73;;;1.97;;
26050;SDS011;13825;53.496;10.020;2023-05-19T09:31:47;6.10;;;1.97;;
26050;SDS011;13825;53.496;10.020;2023-05-19T09:34:15;9.20;;;1.93;;
26050;SDS011;13825;53.496;10.020;2023-05-19T09:36:43;4.03;;;1.53;;
26050;SDS011;13825;53.496;10.020;2023-05-19T09:39:13;3.50;;;1.73;;
26050;SDS011;13825;53.496;10.020;2023-05-19T09:41:41;2.63;;;1.87;;
26050;SDS011;13825;53.496;10.020;2023-05-19T09:44:12;4.13;;;2.00;;
26050;SDS011;13825;53.496;10.020;2023-05-19T09:46:54;3.30;;;1.43;;
26050;SDS011;13825;53.496;10.020;2023-05-19T09:49:24;3.73;;;1.87;;
26050;SDS011;13825;53.496;10.020;2023-05-19T09:51:53;5.33;;;1.73;;
26050;SDS011;13825;53.496;10.020;2023-05-19T09:54:21;4.63;;;1.97;;
26050;SDS011;13825;53.496;10.020;2023-05-19T09:56:50;4.97;;;1.77;;
26050;SDS011;13825;53.496;10.020;2023-05-19T09:59:22;5.10;;;1.70;;
26050;SDS011;13825;53.496;10.020;2023-05-19T10:01:52;4.23;;;2.03;;
26050;SDS011;13825;53.496;10.020;2023-05-19T10:04:21;5.23;;;1.60;;
26050;SDS011;13825;53.496;10.020;2023-05-19T10:06:48;3.13;;;1.53;;
26050;SDS011;13825;53.496;10.020;2023-05-19T10:09:19;3.20;;;1.60;;
26050;SDS011;13825;53.496;10.020;2023-05-19T10:11:50;2.53;;;1.60;;
26050;SDS011;13825;53.496;10.020;2023-05-19T10:14:17;2.57;;;1.80;;
26050;SDS011;13825;53.496;10.020;2023-05-19T10:16:48;4.30;;;1.70;;
26050;SDS011;13825;53.496;10.020;2023-05-19T10:19:17;3.10;;;1.60;;
26050;SDS011;13825;53.496;10.020;2023-05-19T10:21:47;5.10;;;1.77;;
26050;SDS011;13825;53.496;10.020;2023-05-19T10:24:14;2.90;;;1.73;;
26050;SDS011;13825;53.496;10.020;2023-05-19T10:26:42;4.70;;;2.03;;
26050;SDS011;13825;53.496;10.020;2023-05-19T10:29:11;5.57;;;1.77;;
26050;SDS011;13825;53.496;10.020;2023-05-19T10:31:42;4.37;;;2.10;;
26050;SDS011;13825;53.496;10.020;2023-05-19T10:34:22;2.90;;;1.70;;
26050;SDS011;13825;53.496;10.020;2023-05-19T10:37:11;5.37;;;1.63;;
26050;SDS011;13825;53.496;10.020;2023-05-19T10:39:49;3.33;;;1.90;;
26050;SDS011;13825;53.496;10.020;2023-05-19T10:42:28;3.33;;;1.60;;
26050;SDS011;13825;53.496;10.020;2023-05-19T10:45:12;3.33;;;1.67;;
26050;SDS011;13825;53.496;10.020;2023-05-19T10:47:43;4.07;;;2.00;;
26050;SDS011;13825;53.496;10.020;2023-05-19T10:50:11;7.37;;;1.93;;
26050;SDS011;13825;53.496;10.020;2023-05-19T10:52:39;4.67;;;1.60;;
26050;SDS011;13825;53.496;10.020;2023-05-19T10:55:06;2.47;;;1.60;;
26050;SDS011;13825;53.496;10.020;2023-05-19T10:57:54;3.57;;;1.70;;
26050;SDS011;13825;53.496;10.020;2023-05-19T11:00:28;2.47;;;1.40;;
26050;SDS011;13825;53.496;10.020;2023-05-19T11:03:10;6.73;;;1.90;;
26050;SDS011;13825;53.496;10.020;2023-05-19T11:05:40;3.33;;;1.53;;
26050;SDS011;13825;53.496;10.020;2023-05-19T11:08:11;3.33;;;1.80;;
26050;SDS011;13825;53.496;10.020;2023-05-19T11:10:38;2.60;;;1.50;;
26050;SDS011;13825;53.496;10.020;2023-05-19T11:13:17;2.43;;;1.40;;
26050;SDS011;13825;53.496;10.020;2023-05-19T11:15:45;2.67;;;1.60;;
26050;SDS011;13825;53.496;10.020;2023-05-19T11:18:12;5.10;;;1.80;;
26050;SDS011;13825;53.496;10.020;2023-05-19T11:20:43;3.70;;;1.80;;
26050;SDS011;13825;53.496;10.020;2023-05-19T11:23:22;3.13;;;1.60;;
26050;SDS011;13825;53.496;10.020;2023-05-19T11:25:51;6.50;;;2.03;;
26050;SDS011;13825;53.496;10.020;2023-05-19T11:28:19;6.73;;;1.93;;
26050;SDS011;13825;53.496;10.020;2023-05-19T11:30:49;5.30;;;1.40;;
26050;SDS011;13825;53.496;10.020;2023-05-19T11:33:21;4.63;;;1.83;;
26050;SDS011;13825;53.496;10.020;2023-05-19T11:35:52;5.83;;;2.00;;
26050;SDS011;13825;53.496;10.020;2023-05-19T11:38:21;4.20;;;1.83;;
26050;SDS011;13825;53.496;10.020;2023-05-19T11:40:51;2.90;;;1.73;;
26050;SDS011;13825;53.496;10.020;2023-05-19T11:43:21;3.47;;;1.70;;
26050;SDS011;13825;53.496;10.020;2023-05-19T11:45:48;2.87;;;1.63;;
26050;SDS011;13825;53.496;10.020;2023-05-19T11:48:15;3.87;;;1.70;;
26050;SDS011;13825;53.496;10.020;2023-05-19T11:50:45;3.63;;;2.13;;
26050;SDS011;13825;53.496;10.020;2023-05-19T11:53:14;4.73;;;1.90;;
26050;SDS011;13825;53.496;10.020;2023-05-19T11:55:41;3.13;;;1.30;;
26050;SDS011;13825;53.496;10.020;2023-05-19T11:58:10;3.27;;;1.80;;
26050;SDS011;13825;53.496;10.020;2023-05-19T12:00:38;2.13;;;1.50;;
26050;SDS011;13825;53.496;10.020;2023-05-19T12:06:47;5.30;;;1.63;;
26050;SDS011;13825;53.496;10.020;2023-05-19T12:09:16;3.83;;;1.67;;
26050;SDS011;13825;53.496;10.020;2023-05-19T12:11:43;4.00;;;1.50;;
26050;SDS011;13825;53.496;10.020;2023-05-19T12:14:10;2.83;;;1.60;;
26050;SDS011;13825;53.496;10.020;2023-05-19T12:16:38;4.40;;;1.67;;
26050;SDS011;13825;53.496;10.020;2023-05-19T12:19:06;3.23;;;1.60;;
26050;SDS011;13825;53.496;10.020;2023-05-19T12:21:33;3.07;;;1.80;;
26050;SDS011;13825;53.496;10.020;2023-05-19T12:24:00;3.60;;;1.50;;
26050;SDS011;13825;53.496;10.020;2023-05-19T12:26:29;4.87;;;1.67;;
26050;SDS011;13825;53.496;10.020;2023-05-19T12:28:57;2.57;;;1.50;;
26050;SDS011;13825;53.496;10.020;2023-05-19T12:31:24;1.90;;;1.50;;
26050;SDS011;13825;53.496;10.020;2023-05-19T12:33:51;6.13;;;1.50;;
26050;SDS011;13825;53.496;10.020;2023-05-19T12:36:18;3.97;;;1.60;;
26050;SDS011;13825;53.496;10.020;2023-05-19T12:38:46;2.70;;;1.60;;
26050;SDS011;13825;53.496;10.020;2023-05-19T12:41:18;4.03;;;1.60;;
26050;SDS011;13825;53.496;10.020;2023-05-19T12:43:47;3.40;;;1.53;;
26050;SDS011;13825;53.496;10.020;2023-05-19T12:46:14;3.47;;;1.90;;
26050;SDS011;13825;53.496;10.020;2023-05-19T12:48:44;4.20;;;1.70;;
26050;SDS011;13825;53.496;10.020;2023-05-19T12:51:15;2.77;;;1.60;;
26050;SDS011;13825;53.496;10.020;2023-05-19T12:53:42;3.63;;;1.40;;
26050;SDS011;13825;53.496;10.020;2023-05-19T12:56:10;2.60;;;1.63;;
26050;SDS011;13825;53.496;10.020;2023-05-19T12:58:38;3.00;;;2.23;;
26050;SDS011;13825;53.496;10.020;2023-05-19T13:01:13;3.77;;;1.67;;
26050;SDS011;13825;53.496;10.020;2023-05-19T13:03:41;3.23;;;1.70;;
26050;SDS011;13825;53.496;10.020;2023-05-19T13:06:08;2.40;;;1.53;;
26050;SDS011;13825;53.496;10.020;2023-05-19T13:08:36;3.20;;;1.60;;
26050;SDS011;13825;53.496;10.020;2023-05-19T13:11:03;2.83;;;1.63;;
26050;SDS011;13825;53.496;10.020;2023-05-19T13:13:30;3.33;;;1.60;;
26050;SDS011;13825;53.496;10.020;2023-05-19T13:15:58;2.10;;;1.33;;
26050;SDS011;13825;53.496;10.020;2023-05-19T13:18:26;3.57;;;1.60;;
26050;SDS011;13825;53.496;10.020;2023-05-19T13:20:56;3.60;;;1.80;;
26050;SDS011;13825;53.496;10.020;2023-05-19T13:23:23;2.97;;;1.73;;
26050;SDS011;13825;53.496;10.020;2023-05-19T13:25:50;5.83;;;2.10;;
26050;SDS011;13825;53.496;10.020;2023-05-19T13:28:17;6.03;;;1.80;;
26050;SDS011;13825;53.496;10.020;2023-05-19T13:30:44;4.87;;;1.73;;
26050;SDS011;13825;53.496;10.020;2023-05-19T13:33:11;4.83;;;1.97;;
26050;SDS011;13825;53.496;10.020;2023-05-19T13:35:39;4.60;;;1.77;;
26050;SDS011;13825;53.496;10.020;2023-05-19T13:38:06;6.20;;;2.40;;
26050;SDS011;13825;53.496;10.020;2023-05-19T13:40:34;4.10;;;1.83;;
26050;SDS011;13825;53.496;10.020;2023-05-19T13:43:01;5.57;;;1.70;;
26050;SDS011;13825;53.496;10.020;2023-05-19T13:45:29;3.60;;;1.60;;
26050;SDS011;13825;53.496;10.020;2023-05-19T13:47:56;2.90;;;1.77;;
26050;SDS011;13825;53.496;10.020;2023-05-19T13:50:23;3.33;;;1.57;;
26050;SDS011;13825;53.496;10.020;2023-05-19T13:52:51;3.17;;;1.60;;
26050;SDS011;13825;53.496;10.020;2023-05-19T13:55:18;2.47;;;1.50;;
26050;SDS011;13825;53.496;10.020;2023-05-19T13:57:45;2.40;;;1.60;;
26050;SDS011;13825;53.496;10.020;2023-05-19T14:00:12;3.73;;;1.73;;
26050;SDS011;13825;53.496;10.020;2023-05-19T14:02:40;3.30;;;1.70;;
26050;SDS011;13825;53.496;10.020;2023-05-19T14:05:07;3.27;;;1.80;;
26050;SDS011;13825;53.496;10.020;2023-05-19T14:07:34;6.20;;;2.87;;
26050;SDS011;13825;53.496;10.020;2023-05-19T14:10:02;3.73;;;1.60;;
26050;SDS011;13825;53.496;10.020;2023-05-19T14:12:30;9.97;;;4.27;;
26050;SDS011;13825;53.496;10.020;2023-05-19T14:14:59;5.83;;;2.47;;
26050;SDS011;13825;53.496;10.020;2023-05-19T14:17:26;3.57;;;1.93;;
26050;SDS011;13825;53.496;10.020;2023-05-19T14:19:53;6.27;;;2.20;;
26050;SDS011;13825;53.496;10.020;2023-05-19T14:22:20;2.20;;;1.57;;
26050;SDS011;13825;53.496;10.020;2023-05-19T14:24:47;2.17;;;1.40;;
26050;SDS011;13825;53.496;10.020;2023-05-19T14:27:15;3.67;;;1.70;;
26050;SDS011;13825;53.496;10.020;2023-05-19T14:29:42;4.03;;;2.03;;
26050;SDS011;13825;53.496;10.020;2023-05-19T14:32:09;3.50;;;1.50;;
26050;SDS011;13825;53.496;10.020;2023-05-19T14:34:36;3.60;;;1.60;;
26050;SDS011;13825;53.496;10.020;2023-05-19T14:37:03;4.07;;;1.67;;
26050;SDS011;13825;53.496;10.020;2023-05-19T14:39:31;3.03;;;1.40;;
26050;SDS011;13825;53.496;10.020;2023-05-19T14:41:57;2.20;;;1.20;;
26050;SDS011;13825;53.496;10.020;2023-05-19T14:44:29;2.97;;;1.87;;
26050;SDS011;13825;53.496;10.020;2023-05-19T14:46:57;4.63;;;1.63;;
26050;SDS011;13825;53.496;10.020;2023-05-19T14:49:24;4.43;;;1.70;;
26050;SDS011;13825;53.496;10.020;2023-05-19T14:51:51;2.97;;;1.60;;